sensor_id;sensor_type;location;lat;lon;timestamp;temperature;humidity
20174;DHT22;10246;50.620;7.232;2024-01-16T00:00:54;3.10;6.30
20174;DHT22;10246;50.620;7.232;2024-01-16T00:03:22;3.00;5.70
20174;DHT22;10246;50.620;7.232;2024-01-16T00:05:48;3.00;5.90
20174;DHT22;10246;50.620;7.232;2024-01-16T00:08:15;3.00;5.70
20174;DHT22;10246;50.620;7.232;2024-01-16T00:10:42;3.00;5.50
20174;DHT22;10246;50.620;7.232;2024-01-16T00:13:09;3.00;5.40
20174;DHT22;10246;50.620;7.232;2024-01-16T00:15:35;3.00;5.90
20174;DHT22;10246;50.620;7.232;2024-01-16T00:18:02;3.10;5.30
20174;DHT22;10246;50.620;7.232;2024-01-16T00:20:30;3.00;4.80
20174;DHT22;10246;50.620;7.232;2024-01-16T00:22:57;3.10;4.80
20174;DHT22;10246;50.620;7.232;2024-01-16T00:25:24;3.00;5.10
20174;DHT22;10246;50.620;7.232;2024-01-16T00:27:51;3.00;4.80
20174;DHT22;10246;50.620;7.232;2024-01-16T00:30:18;3.00;4.90
20174;DHT22;10246;50.620;7.232;2024-01-16T00:32:45;3.00;5.10
20174;DHT22;10246;50.620;7.232;2024-01-16T00:35:12;3.00;5.30
20174;DHT22;10246;50.620;7.232;2024-01-16T00:37:40;3.00;5.10
20174;DHT22;10246;50.620;7.232;2024-01-16T00:40:07;3.00;4.70
20174;DHT22;10246;50.620;7.232;2024-01-16T00:42:35;3.00;5.30
20174;DHT22;10246;50.620;7.232;2024-01-16T00:45:01;3.00;5.60
20174;DHT22;10246;50.620;7.232;2024-01-16T00:47:28;3.00;4.90
20174;DHT22;10246;50.620;7.232;2024-01-16T00:49:55;3.00;5.00
20174;DHT22;10246;50.620;7.232;2024-01-16T00:52:22;3.10;5.40
20174;DHT22;10246;50.620;7.232;2024-01-16T00:54:50;3.00;5.10
20174;DHT22;10246;50.620;7.232;2024-01-16T00:57:16;3.00;5.40
20174;DHT22;10246;50.620;7.232;2024-01-16T00:59:45;3.00;6.00
20174;DHT22;10246;50.620;7.232;2024-01-16T01:02:11;3.00;5.70
20174;DHT22;10246;50.620;7.232;2024-01-16T01:04:38;3.00;6.40
20174;DHT22;10246;50.620;7.232;2024-01-16T01:07:06;3.00;5.90
20174;DHT22;10246;50.620;7.232;2024-01-16T01:09:34;3.00;5.80
20174;DHT22;10246;50.620;7.232;2024-01-16T01:12:04;3.00;6.10
20174;DHT22;10246;50.620;7.232;2024-01-16T01:14:31;2.90;6.30
20174;DHT22;10246;50.620;7.232;2024-01-16T01:16:58;3.00;6.50
20174;DHT22;10246;50.620;7.232;2024-01-16T01:19:24;3.00;6.80
20174;DHT22;10246;50.620;7.232;2024-01-16T01:21:51;3.00;5.80
20174;DHT22;10246;50.620;7.232;2024-01-16T01:24:18;3.00;6.10
20174;DHT22;10246;50.620;7.232;2024-01-16T01:26:45;3.00;4.90
20174;DHT22;10246;50.620;7.232;2024-01-16T01:29:13;3.00;4.90
20174;DHT22;10246;50.620;7.232;2024-01-16T01:31:39;3.00;5.10
20174;DHT22;10246;50.620;7.232;2024-01-16T01:34:06;3.00;4.30
20174;DHT22;10246;50.620;7.232;2024-01-16T01:36:33;3.00;4.80
20174;DHT22;10246;50.620;7.232;2024-01-16T01:39:00;3.00;4.60
20174;DHT22;10246;50.620;7.232;2024-01-16T01:41:27;2.90;4.80
20174;DHT22;10246;50.620;7.232;2024-01-16T01:43:54;3.00;5.20
20174;DHT22;10246;50.620;7.232;2024-01-16T01:46:22;3.00;4.70
20174;DHT22;10246;50.620;7.232;2024-01-16T01:48:49;3.00;4.50
20174;DHT22;10246;50.620;7.232;2024-01-16T01:51:18;3.00;4.30
20174;DHT22;10246;50.620;7.232;2024-01-16T01:53:47;3.00;4.60
20174;DHT22;10246;50.620;7.232;2024-01-16T01:56:16;2.90;4.70
20174;DHT22;10246;50.620;7.232;2024-01-16T01:58:47;2.90;5.10
20174;DHT22;10246;50.620;7.232;2024-01-16T02:01:15;2.90;5.30
20174;DHT22;10246;50.620;7.232;2024-01-16T02:03:44;3.00;4.20
20174;DHT22;10246;50.620;7.232;2024-01-16T02:06:12;3.00;4.30
20174;DHT22;10246;50.620;7.232;2024-01-16T02:08:41;3.00;3.60
20174;DHT22;10246;50.620;7.232;2024-01-16T02:11:07;3.00;4.10
20174;DHT22;10246;50.620;7.232;2024-01-16T02:13:35;3.00;4.00
20174;DHT22;10246;50.620;7.232;2024-01-16T02:16:02;3.00;2.40
20174;DHT22;10246;50.620;7.232;2024-01-16T02:18:29;3.10;2.30
20174;DHT22;10246;50.620;7.232;2024-01-16T02:21:00;3.00;2.10
20174;DHT22;10246;50.620;7.232;2024-01-16T02:23:29;3.00;2.40
20174;DHT22;10246;50.620;7.232;2024-01-16T02:25:56;3.00;2.80
20174;DHT22;10246;50.620;7.232;2024-01-16T02:28:23;3.10;2.00
20174;DHT22;10246;50.620;7.232;2024-01-16T02:30:50;3.20;2.10
20174;DHT22;10246;50.620;7.232;2024-01-16T02:33:17;3.10;3.00
20174;DHT22;10246;50.620;7.232;2024-01-16T02:35:44;3.10;4.90
20174;DHT22;10246;50.620;7.232;2024-01-16T02:38:10;3.00;6.90
20174;DHT22;10246;50.620;7.232;2024-01-16T02:40:38;2.80;8.60
20174;DHT22;10246;50.620;7.232;2024-01-16T02:43:06;2.70;9.80
20174;DHT22;10246;50.620;7.232;2024-01-16T02:45:33;2.60;10.90
20174;DHT22;10246;50.620;7.232;2024-01-16T02:47:59;2.60;11.60
20174;DHT22;10246;50.620;7.232;2024-01-16T02:50:26;2.60;12.70
20174;DHT22;10246;50.620;7.232;2024-01-16T02:52:53;2.60;12.60
20174;DHT22;10246;50.620;7.232;2024-01-16T02:55:20;2.60;12.10
20174;DHT22;10246;50.620;7.232;2024-01-16T02:57:48;2.50;13.00
20174;DHT22;10246;50.620;7.232;2024-01-16T03:00:15;2.50;13.40
20174;DHT22;10246;50.620;7.232;2024-01-16T03:02:43;2.40;13.60
20174;DHT22;10246;50.620;7.232;2024-01-16T03:05:10;2.50;13.00
20174;DHT22;10246;50.620;7.232;2024-01-16T03:07:37;2.50;13.40
20174;DHT22;10246;50.620;7.232;2024-01-16T03:10:04;2.40;13.30
20174;DHT22;10246;50.620;7.232;2024-01-16T03:12:31;2.50;13.60
20174;DHT22;10246;50.620;7.232;2024-01-16T03:14:59;2.50;13.10
20174;DHT22;10246;50.620;7.232;2024-01-16T03:17:26;2.60;12.80
20174;DHT22;10246;50.620;7.232;2024-01-16T03:19:52;2.60;12.40
20174;DHT22;10246;50.620;7.232;2024-01-16T03:22:19;2.50;12.20
20174;DHT22;10246;50.620;7.232;2024-01-16T03:24:46;2.60;11.10
20174;DHT22;10246;50.620;7.232;2024-01-16T03:27:12;2.50;11.30
20174;DHT22;10246;50.620;7.232;2024-01-16T03:29:39;2.60;11.30
20174;DHT22;10246;50.620;7.232;2024-01-16T03:32:07;2.60;11.10
20174;DHT22;10246;50.620;7.232;2024-01-16T03:34:34;2.70;10.00
20174;DHT22;10246;50.620;7.232;2024-01-16T03:37:01;2.70;8.60
20174;DHT22;10246;50.620;7.232;2024-01-16T03:39:27;2.60;8.50
20174;DHT22;10246;50.620;7.232;2024-01-16T03:41:54;2.70;8.60
20174;DHT22;10246;50.620;7.232;2024-01-16T03:44:21;2.70;8.10
20174;DHT22;10246;50.620;7.232;2024-01-16T03:46:48;2.60;8.50
20174;DHT22;10246;50.620;7.232;2024-01-16T03:49:16;2.60;8.50
20174;DHT22;10246;50.620;7.232;2024-01-16T03:51:42;2.70;9.30
20174;DHT22;10246;50.620;7.232;2024-01-16T03:54:11;2.70;7.70
20174;DHT22;10246;50.620;7.232;2024-01-16T03:56:38;2.70;8.00
20174;DHT22;10246;50.620;7.232;2024-01-16T03:59:05;2.70;7.90
20174;DHT22;10246;50.620;7.232;2024-01-16T04:01:32;2.70;7.80
20174;DHT22;10246;50.620;7.232;2024-01-16T04:04:01;2.70;7.80
20174;DHT22;10246;50.620;7.232;2024-01-16T04:06:29;2.60;8.50
20174;DHT22;10246;50.620;7.232;2024-01-16T04:08:57;2.60;8.50
20174;DHT22;10246;50.620;7.232;2024-01-16T04:11:24;2.70;8.60
20174;DHT22;10246;50.620;7.232;2024-01-16T04:13:51;2.70;8.60
20174;DHT22;10246;50.620;7.232;2024-01-16T04:16:17;2.70;8.00
20174;DHT22;10246;50.620;7.232;2024-01-16T04:18:44;2.70;8.30
20174;DHT22;10246;50.620;7.232;2024-01-16T04:21:11;2.60;8.50
20174;DHT22;10246;50.620;7.232;2024-01-16T04:23:39;2.60;8.90
20174;DHT22;10246;50.620;7.232;2024-01-16T04:26:07;2.60;8.50
20174;DHT22;10246;50.620;7.232;2024-01-16T04:28:34;2.70;7.90
20174;DHT22;10246;50.620;7.232;2024-01-16T04:31:02;2.70;7.20
20174;DHT22;10246;50.620;7.232;2024-01-16T04:33:29;2.70;7.60
20174;DHT22;10246;50.620;7.232;2024-01-16T04:35:56;2.70;7.10
20174;DHT22;10246;50.620;7.232;2024-01-16T04:38:23;2.60;7.30
20174;DHT22;10246;50.620;7.232;2024-01-16T04:40:51;2.60;8.50
20174;DHT22;10246;50.620;7.232;2024-01-16T04:43:18;2.60;8.50
20174;DHT22;10246;50.620;7.232;2024-01-16T04:45:44;2.50;8.50
20174;DHT22;10246;50.620;7.232;2024-01-16T04:48:11;2.50;8.50
20174;DHT22;10246;50.620;7.232;2024-01-16T04:50:38;2.50;7.90
20174;DHT22;10246;50.620;7.232;2024-01-16T04:53:05;2.50;8.50
20174;DHT22;10246;50.620;7.232;2024-01-16T04:55:31;2.50;8.50
20174;DHT22;10246;50.620;7.232;2024-01-16T04:57:59;2.50;8.20
20174;DHT22;10246;50.620;7.232;2024-01-16T05:00:26;2.50;8.50
20174;DHT22;10246;50.620;7.232;2024-01-16T05:02:53;2.50;8.50
20174;DHT22;10246;50.620;7.232;2024-01-16T05:05:20;2.50;9.60
20174;DHT22;10246;50.620;7.232;2024-01-16T05:07:46;2.50;9.30
20174;DHT22;10246;50.620;7.232;2024-01-16T05:10:13;2.50;9.10
20174;DHT22;10246;50.620;7.232;2024-01-16T05:12:40;2.40;9.60
20174;DHT22;10246;50.620;7.232;2024-01-16T05:15:09;2.30;10.60
20174;DHT22;10246;50.620;7.232;2024-01-16T05:17:38;2.30;9.10
20174;DHT22;10246;50.620;7.232;2024-01-16T05:20:05;2.30;10.00
20174;DHT22;10246;50.620;7.232;2024-01-16T05:22:32;2.30;10.10
20174;DHT22;10246;50.620;7.232;2024-01-16T05:24:59;2.30;10.00
20174;DHT22;10246;50.620;7.232;2024-01-16T05:27:26;2.30;9.80
20174;DHT22;10246;50.620;7.232;2024-01-16T05:29:52;2.30;9.90
20174;DHT22;10246;50.620;7.232;2024-01-16T05:32:21;2.20;10.10
20174;DHT22;10246;50.620;7.232;2024-01-16T05:34:47;2.20;10.40
20174;DHT22;10246;50.620;7.232;2024-01-16T05:37:14;2.30;10.00
20174;DHT22;10246;50.620;7.232;2024-01-16T05:39:41;2.20;9.70
20174;DHT22;10246;50.620;7.232;2024-01-16T05:42:08;2.20;9.90
20174;DHT22;10246;50.620;7.232;2024-01-16T05:44:34;2.20;9.40
20174;DHT22;10246;50.620;7.232;2024-01-16T05:47:01;2.20;9.30
20174;DHT22;10246;50.620;7.232;2024-01-16T05:49:30;2.20;8.30
20174;DHT22;10246;50.620;7.232;2024-01-16T05:51:57;2.20;9.50
20174;DHT22;10246;50.620;7.232;2024-01-16T05:54:24;2.20;10.10
20174;DHT22;10246;50.620;7.232;2024-01-16T05:56:50;2.20;9.70
20174;DHT22;10246;50.620;7.232;2024-01-16T05:59:17;2.30;9.90
20174;DHT22;10246;50.620;7.232;2024-01-16T06:01:44;2.20;9.60
20174;DHT22;10246;50.620;7.232;2024-01-16T06:04:10;2.20;9.20
20174;DHT22;10246;50.620;7.232;2024-01-16T06:06:38;2.20;8.90
20174;DHT22;10246;50.620;7.232;2024-01-16T06:09:09;2.20;8.90
20174;DHT22;10246;50.620;7.232;2024-01-16T06:11:39;2.30;9.00
20174;DHT22;10246;50.620;7.232;2024-01-16T06:14:07;2.30;9.10
20174;DHT22;10246;50.620;7.232;2024-01-16T06:16:33;2.30;9.00
20174;DHT22;10246;50.620;7.232;2024-01-16T06:19:00;2.30;9.00
20174;DHT22;10246;50.620;7.232;2024-01-16T06:21:27;2.20;8.30
20174;DHT22;10246;50.620;7.232;2024-01-16T06:23:55;2.20;8.60
20174;DHT22;10246;50.620;7.232;2024-01-16T06:26:23;2.20;8.90
20174;DHT22;10246;50.620;7.232;2024-01-16T06:28:49;2.20;8.90
20174;DHT22;10246;50.620;7.232;2024-01-16T06:31:17;2.20;7.90
20174;DHT22;10246;50.620;7.232;2024-01-16T06:33:43;2.20;6.70
20174;DHT22;10246;50.620;7.232;2024-01-16T06:36:10;2.20;6.70
20174;DHT22;10246;50.620;7.232;2024-01-16T06:38:38;2.20;7.60
20174;DHT22;10246;50.620;7.232;2024-01-16T06:41:07;2.20;6.40
20174;DHT22;10246;50.620;7.232;2024-01-16T06:43:34;2.30;6.50
20174;DHT22;10246;50.620;7.232;2024-01-16T06:46:01;2.20;6.20
20174;DHT22;10246;50.620;7.232;2024-01-16T06:48:28;2.20;5.70
20174;DHT22;10246;50.620;7.232;2024-01-16T06:50:55;2.30;6.40
20174;DHT22;10246;50.620;7.232;2024-01-16T06:53:22;2.20;5.70
20174;DHT22;10246;50.620;7.232;2024-01-16T06:55:49;2.20;5.10
20174;DHT22;10246;50.620;7.232;2024-01-16T06:58:17;2.20;5.10
20174;DHT22;10246;50.620;7.232;2024-01-16T07:00:44;2.20;5.30
20174;DHT22;10246;50.620;7.232;2024-01-16T07:03:11;2.20;4.10
20174;DHT22;10246;50.620;7.232;2024-01-16T07:05:38;2.20;3.20
20174;DHT22;10246;50.620;7.232;2024-01-16T07:08:06;2.30;3.10
20174;DHT22;10246;50.620;7.232;2024-01-16T07:10:32;2.20;3.50
20174;DHT22;10246;50.620;7.232;2024-01-16T07:12:59;2.20;3.50
20174;DHT22;10246;50.620;7.232;2024-01-16T07:15:28;2.20;3.90
20174;DHT22;10246;50.620;7.232;2024-01-16T07:17:55;2.20;3.20
20174;DHT22;10246;50.620;7.232;2024-01-16T07:20:21;2.20;1.00
20174;DHT22;10246;50.620;7.232;2024-01-16T07:22:48;2.10;1.10
20174;DHT22;10246;50.620;7.232;2024-01-16T07:25:15;2.10;1.00
20174;DHT22;10246;50.620;7.232;2024-01-16T07:27:42;2.10;1.00
20174;DHT22;10246;50.620;7.232;2024-01-16T07:30:12;2.10;1.00
20174;DHT22;10246;50.620;7.232;2024-01-16T07:32:41;2.00;1.00
20174;DHT22;10246;50.620;7.232;2024-01-16T07:35:08;2.00;1.00
20174;DHT22;10246;50.620;7.232;2024-01-16T07:37:35;2.00;1.00
20174;DHT22;10246;50.620;7.232;2024-01-16T07:40:01;2.00;1.00
20174;DHT22;10246;50.620;7.232;2024-01-16T07:42:31;2.00;1.00
20174;DHT22;10246;50.620;7.232;2024-01-16T07:44:59;1.90;1.00
20174;DHT22;10246;50.620;7.232;2024-01-16T07:47:26;1.90;1.00
20174;DHT22;10246;50.620;7.232;2024-01-16T07:49:55;1.90;1.00
20174;DHT22;10246;50.620;7.232;2024-01-16T07:52:21;1.90;1.00
20174;DHT22;10246;50.620;7.232;2024-01-16T07:54:48;1.90;1.00
20174;DHT22;10246;50.620;7.232;2024-01-16T07:57:15;1.90;1.00
20174;DHT22;10246;50.620;7.232;2024-01-16T07:59:42;1.90;1.00
20174;DHT22;10246;50.620;7.232;2024-01-16T08:02:08;1.90;1.00
20174;DHT22;10246;50.620;7.232;2024-01-16T08:04:35;1.90;1.00
20174;DHT22;10246;50.620;7.232;2024-01-16T08:07:03;1.90;1.00
20174;DHT22;10246;50.620;7.232;2024-01-16T08:09:30;1.90;1.00
20174;DHT22;10246;50.620;7.232;2024-01-16T08:11:57;1.90;1.00
20174;DHT22;10246;50.620;7.232;2024-01-16T08:14:24;1.90;1.00
20174;DHT22;10246;50.620;7.232;2024-01-16T08:16:51;1.80;1.00
20174;DHT22;10246;50.620;7.232;2024-01-16T08:19:17;1.80;1.00
20174;DHT22;10246;50.620;7.232;2024-01-16T08:21:44;1.70;1.00
20174;DHT22;10246;50.620;7.232;2024-01-16T08:24:12;1.80;1.00
20174;DHT22;10246;50.620;7.232;2024-01-16T08:26:39;1.80;1.00
20174;DHT22;10246;50.620;7.232;2024-01-16T08:29:06;1.80;1.00
20174;DHT22;10246;50.620;7.232;2024-01-16T08:31:33;1.80;1.00
20174;DHT22;10246;50.620;7.232;2024-01-16T08:33:59;1.80;1.00
20174;DHT22;10246;50.620;7.232;2024-01-16T08:36:26;1.80;1.00
20174;DHT22;10246;50.620;7.232;2024-01-16T08:38:53;1.80;1.00
20174;DHT22;10246;50.620;7.232;2024-01-16T08:41:22;1.90;1.00
20174;DHT22;10246;50.620;7.232;2024-01-16T08:43:48;1.80;1.00
20174;DHT22;10246;50.620;7.232;2024-01-16T08:46:16;1.90;1.00
20174;DHT22;10246;50.620;7.232;2024-01-16T08:48:45;1.90;1.00
20174;DHT22;10246;50.620;7.232;2024-01-16T08:51:12;1.90;1.00
20174;DHT22;10246;50.620;7.232;2024-01-16T08:53:39;1.90;1.00
20174;DHT22;10246;50.620;7.232;2024-01-16T08:56:06;1.90;1.00
20174;DHT22;10246;50.620;7.232;2024-01-16T08:58:35;1.90;1.00
20174;DHT22;10246;50.620;7.232;2024-01-16T09:01:03;1.80;1.00
20174;DHT22;10246;50.620;7.232;2024-01-16T09:03:30;1.90;1.00
20174;DHT22;10246;50.620;7.232;2024-01-16T09:05:57;1.90;1.00
20174;DHT22;10246;50.620;7.232;2024-01-16T09:08:24;1.90;1.00
20174;DHT22;10246;50.620;7.232;2024-01-16T09:10:52;2.00;1.00
20174;DHT22;10246;50.620;7.232;2024-01-16T09:13:18;2.00;1.00
20174;DHT22;10246;50.620;7.232;2024-01-16T09:15:47;2.10;1.00
20174;DHT22;10246;50.620;7.232;2024-01-16T09:18:14;2.10;1.00
20174;DHT22;10246;50.620;7.232;2024-01-16T09:20:41;2.10;1.00
20174;DHT22;10246;50.620;7.232;2024-01-16T09:23:08;2.10;1.00
20174;DHT22;10246;50.620;7.232;2024-01-16T09:25:35;2.10;1.00
20174;DHT22;10246;50.620;7.232;2024-01-16T09:28:02;2.00;1.00
20174;DHT22;10246;50.620;7.232;2024-01-16T09:30:29;2.00;1.00
20174;DHT22;10246;50.620;7.232;2024-01-16T09:32:57;2.10;1.00
20174;DHT22;10246;50.620;7.232;2024-01-16T09:35:23;2.20;1.00
20174;DHT22;10246;50.620;7.232;2024-01-16T09:37:50;2.20;1.00
20174;DHT22;10246;50.620;7.232;2024-01-16T09:40:17;2.30;1.00
20174;DHT22;10246;50.620;7.232;2024-01-16T09:42:44;2.40;1.00
20174;DHT22;10246;50.620;7.232;2024-01-16T09:45:13;2.50;1.00
20174;DHT22;10246;50.620;7.232;2024-01-16T09:47:46;2.60;1.00
20174;DHT22;10246;50.620;7.232;2024-01-16T09:50:15;2.60;1.00
20174;DHT22;10246;50.620;7.232;2024-01-16T09:52:43;2.70;1.00
20174;DHT22;10246;50.620;7.232;2024-01-16T09:55:10;2.70;1.00
20174;DHT22;10246;50.620;7.232;2024-01-16T09:57:38;2.70;1.00
20174;DHT22;10246;50.620;7.232;2024-01-16T10:00:07;2.70;1.00
20174;DHT22;10246;50.620;7.232;2024-01-16T10:02:37;2.80;1.00
20174;DHT22;10246;50.620;7.232;2024-01-16T10:05:05;2.80;1.00
20174;DHT22;10246;50.620;7.232;2024-01-16T10:07:36;2.80;1.00
20174;DHT22;10246;50.620;7.232;2024-01-16T10:10:04;2.90;1.00
20174;DHT22;10246;50.620;7.232;2024-01-16T10:12:31;3.00;1.00
20174;DHT22;10246;50.620;7.232;2024-01-16T10:14:58;3.00;1.00
20174;DHT22;10246;50.620;7.232;2024-01-16T10:17:35;3.10;1.00
20174;DHT22;10246;50.620;7.232;2024-01-16T10:20:04;3.10;1.00
20174;DHT22;10246;50.620;7.232;2024-01-16T10:22:32;3.20;1.00
20174;DHT22;10246;50.620;7.232;2024-01-16T10:25:07;3.20;1.00
20174;DHT22;10246;50.620;7.232;2024-01-16T10:27:35;3.20;1.00
20174;DHT22;10246;50.620;7.232;2024-01-16T10:30:03;3.10;1.00
20174;DHT22;10246;50.620;7.232;2024-01-16T10:32:31;3.20;1.00
20174;DHT22;10246;50.620;7.232;2024-01-16T10:35:05;3.20;1.00
20174;DHT22;10246;50.620;7.232;2024-01-16T10:37:41;3.20;1.00
20174;DHT22;10246;50.620;7.232;2024-01-16T10:40:10;3.30;1.00
20174;DHT22;10246;50.620;7.232;2024-01-16T10:42:37;3.30;1.00
20174;DHT22;10246;50.620;7.232;2024-01-16T10:45:05;3.30;1.00
20174;DHT22;10246;50.620;7.232;2024-01-16T10:47:32;3.30;1.00
20174;DHT22;10246;50.620;7.232;2024-01-16T10:50:03;3.30;1.00
20174;DHT22;10246;50.620;7.232;2024-01-16T10:52:33;3.20;1.00
20174;DHT22;10246;50.620;7.232;2024-01-16T10:55:00;3.20;1.00
20174;DHT22;10246;50.620;7.232;2024-01-16T10:57:32;3.20;1.00
20174;DHT22;10246;50.620;7.232;2024-01-16T11:00:03;3.30;1.00
20174;DHT22;10246;50.620;7.232;2024-01-16T11:02:37;3.30;1.00
20174;DHT22;10246;50.620;7.232;2024-01-16T11:05:06;3.40;1.00
20174;DHT22;10246;50.620;7.232;2024-01-16T11:07:34;3.50;1.00
20174;DHT22;10246;50.620;7.232;2024-01-16T11:10:02;3.60;1.00
20174;DHT22;10246;50.620;7.232;2024-01-16T11:12:32;3.60;1.00
20174;DHT22;10246;50.620;7.232;2024-01-16T11:15:00;3.70;1.00
20174;DHT22;10246;50.620;7.232;2024-01-16T11:17:28;3.90;1.00
20174;DHT22;10246;50.620;7.232;2024-01-16T11:19:56;4.00;1.00
20174;DHT22;10246;50.620;7.232;2024-01-16T11:22:24;4.00;1.00
20174;DHT22;10246;50.620;7.232;2024-01-16T11:25:07;4.10;1.00
20174;DHT22;10246;50.620;7.232;2024-01-16T11:27:36;4.10;1.00
20174;DHT22;10246;50.620;7.232;2024-01-16T11:30:05;4.10;1.00
20174;DHT22;10246;50.620;7.232;2024-01-16T11:32:33;4.20;1.00
20174;DHT22;10246;50.620;7.232;2024-01-16T11:35:01;4.20;1.00
20174;DHT22;10246;50.620;7.232;2024-01-16T11:37:29;4.30;1.00
20174;DHT22;10246;50.620;7.232;2024-01-16T11:40:22;4.30;1.00
20174;DHT22;10246;50.620;7.232;2024-01-16T11:42:52;4.20;1.00
20174;DHT22;10246;50.620;7.232;2024-01-16T11:48:25;4.30;1.00
20174;DHT22;10246;50.620;7.232;2024-01-16T11:50:53;4.20;1.00
20174;DHT22;10246;50.620;7.232;2024-01-16T11:53:36;4.10;1.00
20174;DHT22;10246;50.620;7.232;2024-01-16T11:56:34;4.00;1.00
20174;DHT22;10246;50.620;7.232;2024-01-16T11:59:51;3.90;1.00
20174;DHT22;10246;50.620;7.232;2024-01-16T12:02:23;3.90;1.00
20174;DHT22;10246;50.620;7.232;2024-01-16T12:04:55;3.90;1.00
20174;DHT22;10246;50.620;7.232;2024-01-16T12:07:22;4.00;1.00
20174;DHT22;10246;50.620;7.232;2024-01-16T12:09:49;4.00;1.00
20174;DHT22;10246;50.620;7.232;2024-01-16T12:12:16;3.90;1.00
20174;DHT22;10246;50.620;7.232;2024-01-16T12:14:52;4.10;1.00
20174;DHT22;10246;50.620;7.232;2024-01-16T12:17:19;4.10;1.00
20174;DHT22;10246;50.620;7.232;2024-01-16T12:19:46;4.10;1.00
20174;DHT22;10246;50.620;7.232;2024-01-16T12:22:16;4.20;1.00
20174;DHT22;10246;50.620;7.232;2024-01-16T12:24:44;4.30;1.00
20174;DHT22;10246;50.620;7.232;2024-01-16T12:27:10;4.40;1.00
20174;DHT22;10246;50.620;7.232;2024-01-16T12:29:37;4.50;1.00
20174;DHT22;10246;50.620;7.232;2024-01-16T12:32:08;4.60;1.00
20174;DHT22;10246;50.620;7.232;2024-01-16T12:34:35;4.60;1.00
20174;DHT22;10246;50.620;7.232;2024-01-16T12:37:09;4.60;1.00
20174;DHT22;10246;50.620;7.232;2024-01-16T12:39:36;4.50;1.00
20174;DHT22;10246;50.620;7.232;2024-01-16T12:42:04;4.60;1.00
20174;DHT22;10246;50.620;7.232;2024-01-16T12:44:31;4.50;1.00
20174;DHT22;10246;50.620;7.232;2024-01-16T12:46:58;4.60;1.00
20174;DHT22;10246;50.620;7.232;2024-01-16T12:49:28;4.60;1.00
20174;DHT22;10246;50.620;7.232;2024-01-16T12:52:17;4.60;1.00
20174;DHT22;10246;50.620;7.232;2024-01-16T12:54:44;4.40;1.00
20174;DHT22;10246;50.620;7.232;2024-01-16T12:57:17;4.30;1.00
20174;DHT22;10246;50.620;7.232;2024-01-16T12:59:45;4.20;1.00
20174;DHT22;10246;50.620;7.232;2024-01-16T13:02:20;4.10;1.00
20174;DHT22;10246;50.620;7.232;2024-01-16T13:04:56;4.00;1.00
20174;DHT22;10246;50.620;7.232;2024-01-16T13:07:24;4.10;1.00
20174;DHT22;10246;50.620;7.232;2024-01-16T13:10:06;4.20;1.00
20174;DHT22;10246;50.620;7.232;2024-01-16T13:12:32;4.20;1.00
20174;DHT22;10246;50.620;7.232;2024-01-16T13:14:59;4.30;1.00
20174;DHT22;10246;50.620;7.232;2024-01-16T13:17:26;4.40;1.00
20174;DHT22;10246;50.620;7.232;2024-01-16T13:19:54;4.40;1.00
20174;DHT22;10246;50.620;7.232;2024-01-16T13:22:20;4.50;1.00
20174;DHT22;10246;50.620;7.232;2024-01-16T13:24:47;4.60;1.00
20174;DHT22;10246;50.620;7.232;2024-01-16T13:27:14;4.80;1.00
20174;DHT22;10246;50.620;7.232;2024-01-16T13:29:41;4.90;1.00
20174;DHT22;10246;50.620;7.232;2024-01-16T13:32:07;5.00;1.00
20174;DHT22;10246;50.620;7.232;2024-01-16T13:34:34;5.10;1.00
20174;DHT22;10246;50.620;7.232;2024-01-16T13:37:03;5.00;1.00
20174;DHT22;10246;50.620;7.232;2024-01-16T13:39:31;5.10;1.00
20174;DHT22;10246;50.620;7.232;2024-01-16T13:42:03;5.00;1.00
20174;DHT22;10246;50.620;7.232;2024-01-16T13:44:33;4.90;1.00
20174;DHT22;10246;50.620;7.232;2024-01-16T13:47:00;4.90;1.00
20174;DHT22;10246;50.620;7.232;2024-01-16T13:49:27;4.90;1.00
20174;DHT22;10246;50.620;7.232;2024-01-16T13:51:53;4.90;1.00
20174;DHT22;10246;50.620;7.232;2024-01-16T13:54:22;4.90;1.00
20174;DHT22;10246;50.620;7.232;2024-01-16T13:56:49;4.80;1.00
20174;DHT22;10246;50.620;7.232;2024-01-16T13:59:16;4.80;1.00
20174;DHT22;10246;50.620;7.232;2024-01-16T14:01:42;4.90;1.00
20174;DHT22;10246;50.620;7.232;2024-01-16T14:04:10;4.80;1.00
20174;DHT22;10246;50.620;7.232;2024-01-16T14:06:37;4.70;1.00
20174;DHT22;10246;50.620;7.232;2024-01-16T14:09:05;4.80;1.00
20174;DHT22;10246;50.620;7.232;2024-01-16T14:11:36;4.70;1.00
20174;DHT22;10246;50.620;7.232;2024-01-16T14:14:03;4.60;1.00
20174;DHT22;10246;50.620;7.232;2024-01-16T14:16:30;4.60;1.00
20174;DHT22;10246;50.620;7.232;2024-01-16T14:18:57;4.70;1.00
20174;DHT22;10246;50.620;7.232;2024-01-16T14:21:24;4.70;1.00
20174;DHT22;10246;50.620;7.232;2024-01-16T14:23:51;4.60;1.00
20174;DHT22;10246;50.620;7.232;2024-01-16T14:26:18;4.70;1.00
20174;DHT22;10246;50.620;7.232;2024-01-16T14:28:46;4.50;1.00
20174;DHT22;10246;50.620;7.232;2024-01-16T14:31:15;4.40;1.00
20174;DHT22;10246;50.620;7.232;2024-01-16T14:33:42;4.40;1.00
20174;DHT22;10246;50.620;7.232;2024-01-16T14:36:08;4.40;1.00
20174;DHT22;10246;50.620;7.232;2024-01-16T14:38:35;4.30;1.00
20174;DHT22;10246;50.620;7.232;2024-01-16T14:41:02;4.30;1.00
20174;DHT22;10246;50.620;7.232;2024-01-16T14:43:29;4.20;1.00
20174;DHT22;10246;50.620;7.232;2024-01-16T14:45:57;4.10;1.00
20174;DHT22;10246;50.620;7.232;2024-01-16T14:48:24;4.00;1.00
20174;DHT22;10246;50.620;7.232;2024-01-16T14:50:51;3.90;1.00
20174;DHT22;10246;50.620;7.232;2024-01-16T14:53:18;3.90;1.00
20174;DHT22;10246;50.620;7.232;2024-01-16T14:55:45;3.80;1.00
20174;DHT22;10246;50.620;7.232;2024-01-16T14:58:12;3.70;1.00
20174;DHT22;10246;50.620;7.232;2024-01-16T15:00:39;3.70;1.00
20174;DHT22;10246;50.620;7.232;2024-01-16T15:03:07;3.70;1.00
20174;DHT22;10246;50.620;7.232;2024-01-16T15:05:33;3.70;1.00
20174;DHT22;10246;50.620;7.232;2024-01-16T15:08:00;3.60;1.00
20174;DHT22;10246;50.620;7.232;2024-01-16T15:10:27;3.60;1.00
20174;DHT22;10246;50.620;7.232;2024-01-16T15:12:54;3.50;1.00
20174;DHT22;10246;50.620;7.232;2024-01-16T15:15:20;3.50;1.00
20174;DHT22;10246;50.620;7.232;2024-01-16T15:17:47;3.50;1.00
20174;DHT22;10246;50.620;7.232;2024-01-16T15:20:15;3.40;1.00
20174;DHT22;10246;50.620;7.232;2024-01-16T15:22:43;3.30;1.00
20174;DHT22;10246;50.620;7.232;2024-01-16T15:25:11;3.40;1.00
20174;DHT22;10246;50.620;7.232;2024-01-16T15:27:39;3.30;1.00
20174;DHT22;10246;50.620;7.232;2024-01-16T15:30:07;3.30;1.00
20174;DHT22;10246;50.620;7.232;2024-01-16T15:32:36;3.20;1.00
20174;DHT22;10246;50.620;7.232;2024-01-16T15:35:03;3.20;1.00
20174;DHT22;10246;50.620;7.232;2024-01-16T15:37:33;3.00;1.00
20174;DHT22;10246;50.620;7.232;2024-01-16T15:40:00;3.00;1.00
20174;DHT22;10246;50.620;7.232;2024-01-16T15:42:28;3.00;1.00
20174;DHT22;10246;50.620;7.232;2024-01-16T15:44:55;2.90;1.00
20174;DHT22;10246;50.620;7.232;2024-01-16T15:47:22;2.90;1.00
20174;DHT22;10246;50.620;7.232;2024-01-16T15:49:49;2.80;1.00
20174;DHT22;10246;50.620;7.232;2024-01-16T15:52:15;2.80;1.00
20174;DHT22;10246;50.620;7.232;2024-01-16T15:54:44;2.70;1.00
20174;DHT22;10246;50.620;7.232;2024-01-16T15:57:11;2.70;1.00
20174;DHT22;10246;50.620;7.232;2024-01-16T15:59:38;2.60;1.00
20174;DHT22;10246;50.620;7.232;2024-01-16T16:02:05;2.40;1.00
20174;DHT22;10246;50.620;7.232;2024-01-16T16:04:31;2.40;1.00
20174;DHT22;10246;50.620;7.232;2024-01-16T16:06:58;2.30;1.00